Time;durP1;ratioP1;P1;durP2;ratioP2;P2;SDS_P1;SDS_P2;PMS_P1;PMS_P2;Temp;Humidity;BMP_temperature;BMP_pressure;BME280_temperature;BME280_humidity;BME280_pressure;Samples;Min_cycle;Max_cycle;Signal;HPM_P1;HPM_P2
2020/12/31 00:00:42;;;;;;;18.20;11.10;;;3.80;94.00;;;;;;6305700;22;20508;-85
2020/12/31 00:03:08;;;;;;;17.50;11.63;;;3.90;93.80;;;;;;6307216;22;20397;-85
2020/12/31 00:05:35;;;;;;;17.40;11.97;;;3.90;95.20;;;;;;6307271;22;20805;-86
2020/12/31 00:08:02;;;;;;;25.43;12.90;;;3.80;97.00;;;;;;6307211;22;20428;-87
2020/12/31 00:10:30;;;;;;;17.43;13.83;;;3.80;99.90;;;;;;6318237;22;20397;-88
2020/12/31 00:12:59;;;;;;;21.00;14.97;;;3.70;99.90;;;;;;6308879;22;20432;-88
2020/12/31 00:15:26;;;;;;;20.53;16.37;;;3.70;99.90;;;;;;6307665;22;20393;-89
2020/12/31 00:17:55;;;;;;;19.50;17.10;;;3.70;99.90;;;;;;6309181;22;20394;-89
2020/12/31 00:20:26;;;;;;;23.10;17.90;;;3.50;99.90;;;;;;6320094;22;20425;-88
2020/12/31 00:22:54;;;;;;;19.30;17.50;;;3.60;99.90;;;;;;6320396;22;20398;-90
2020/12/31 00:25:24;;;;;;;26.50;21.17;;;3.60;99.90;;;;;;6319183;22;20398;-91
2020/12/31 00:27:53;;;;;;;22.20;19.90;;;3.60;99.90;;;;;;6308793;22;20429;-90
2020/12/31 00:30:34;;;;;;;22.13;19.80;;;3.50;99.90;;;;;;6307723;22;20429;-91
2020/12/31 00:33:01;;;;;;;25.10;22.60;;;3.50;99.90;;;;;;6309171;22;20433;-90
2020/12/31 00:35:29;;;;;;;27.73;25.03;;;3.60;99.90;;;;;;6309273;22;20429;-86
2020/12/31 00:38:07;;;;;;;26.67;24.27;;;3.50;99.90;;;;;;6319021;22;20406;-89
2020/12/31 00:40:59;;;;;;;29.00;26.40;;;3.50;99.90;;;;;;6318543;22;20448;-90
2020/12/31 00:43:44;;;;;;;;;;;;;;;;;;;;;
2020/12/31 00:46:20;;;;;;;26.37;23.93;;;3.40;99.90;;;;;;6319425;22;20696;-89
2020/12/31 00:48:47;;;;;;;27.23;24.70;;;3.40;99.90;;;;;;6308654;22;20421;-87
2020/12/31 00:51:23;;;;;;;26.43;23.90;;;3.40;99.90;;;;;;6319143;22;20401;-91
2020/12/31 00:53:58;;;;;;;28.07;22.93;;;3.40;99.90;;;;;;6318954;22;20409;-91
2020/12/31 00:56:39;;;;;;;26.40;24.10;;;3.40;99.90;;;;;;6308781;22;20487;-90
2020/12/31 00:59:19;;;;;;;26.30;23.43;;;3.50;99.90;;;;;;6317465;22;20763;-91
2020/12/31 01:01:50;;;;;;;26.10;23.40;;;3.50;99.90;;;;;;6309002;22;20454;-89
2020/12/31 01:04:26;;;;;;;26.83;24.30;;;3.40;99.90;;;;;;6308868;22;20884;-89
2020/12/31 01:06:58;;;;;;;27.63;24.70;;;3.30;99.90;;;;;;6319037;22;20410;-90
2020/12/31 01:09:32;;;;;;;28.50;25.60;;;3.30;99.90;;;;;;6319167;22;20429;-88
2020/12/31 01:12:06;;;;;;;28.63;25.73;;;3.40;99.90;;;;;;6308391;22;20516;-89
2020/12/31 01:14:40;;;;;;;27.73;24.93;;;3.40;99.90;;;;;;6317710;22;20408;-91
2020/12/31 01:17:11;;;;;;;32.20;25.63;;;3.40;99.90;;;;;;6318348;22;20432;-91
2020/12/31 01:19:45;;;;;;;25.67;23.23;;;3.50;99.90;;;;;;6318291;22;20478;-87
2020/12/31 01:22:19;;;;;;;25.33;22.80;;;3.30;99.90;;;;;;6318592;22;20402;-87
2020/12/31 01:24:46;;;;;;;31.10;25.07;;;3.40;99.90;;;;;;6318634;22;20420;-89
2020/12/31 01:27:26;;;;;;;;;;;;;;;;;;;;;
2020/12/31 01:29:55;;;;;;;28.30;23.23;;;3.30;99.90;;;;;;6317021;22;20467;-89
2020/12/31 01:32:24;;;;;;;27.40;24.50;;;3.40;99.90;;;;;;6318078;22;20409;-89
2020/12/31 01:34:52;;;;;;;26.80;23.93;;;3.40;99.90;;;;;;6318117;22;20815;-88
2020/12/31 01:37:19;;;;;;;41.97;27.30;;;3.40;99.90;;;;;;6308224;22;20401;-89
2020/12/31 01:39:49;;;;;;;33.33;26.47;;;3.40;99.90;;;;;;6307960;22;20428;-89
2020/12/31 01:42:17;;;;;;;26.57;24.17;;;3.40;99.90;;;;;;6318956;22;20406;-89
2020/12/31 01:44:51;;;;;;;30.33;27.43;;;3.30;99.90;;;;;;6317192;22;20409;-88
2020/12/31 01:47:22;;;;;;;28.83;26.03;;;3.40;99.90;;;;;;6317979;22;20935;-89
2020/12/31 01:49:55;;;;;;;28.43;25.70;;;3.40;99.90;;;;;;6318206;22;20419;-88
2020/12/31 01:52:35;;;;;;;;;;;;;;;;;;;;;
2020/12/31 01:55:06;;;;;;;23.93;21.70;;;3.50;99.90;;;;;;6318080;22;20431;-88
2020/12/31 01:58:04;;;;;;;24.23;20.60;;;3.50;99.90;;;;;;6318341;22;20402;-88
2020/12/31 02:00:50;;;;;;;22.60;18.10;;;3.50;99.90;;;;;;6316355;22;20441;-89
2020/12/31 02:03:23;;;;;;;22.63;17.67;;;3.60;99.90;;;;;;6318503;22;20410;-89
2020/12/31 02:06:09;;;;;;;23.27;17.73;;;3.60;99.90;;;;;;6307776;22;20425;-89
2020/12/31 02:08:36;;;;;;;24.60;20.47;;;3.60;99.90;;;;;;6318164;22;20412;-86
2020/12/31 02:11:04;;;;;;;24.60;22.30;;;3.60;99.90;;;;;;6320097;22;20437;-84
2020/12/31 02:13:32;;;;;;;22.47;20.07;;;3.50;99.90;;;;;;6319226;22;20394;-85
2020/12/31 02:16:05;;;;;;;21.10;17.53;;;3.70;99.90;;;;;;6306433;22;20484;-85
2020/12/31 02:18:50;;;;;;;17.07;15.20;;;3.60;99.90;;;;;;6317777;22;20413;-84
2020/12/31 02:21:23;;;;;;;14.70;10.70;;;3.70;99.90;;;;;;6304302;22;20413;-85
2020/12/31 02:23:58;;;;;;;16.13;9.67;;;3.90;99.90;;;;;;6318038;22;20410;-84
2020/12/31 02:26:29;;;;;;;23.07;11.80;;;3.90;99.90;;;;;;6318073;22;20405;-85
2020/12/31 02:28:59;;;;;;;15.33;11.30;;;3.80;99.90;;;;;;6316617;22;20413;-85
2020/12/31 02:31:32;;;;;;;16.03;10.80;;;3.90;99.90;;;;;;6307726;22;20725;-85
2020/12/31 02:34:02;;;;;;;13.57;10.40;;;3.80;99.90;;;;;;6307229;22;20447;-85
2020/12/31 02:36:33;;;;;;;17.37;11.17;;;3.80;99.90;;;;;;6317671;22;20412;-85
2020/12/31 02:39:25;;;;;;;20.23;12.37;;;3.90;99.90;;;;;;6307524;22;20394;-86
2020/12/31 02:42:08;;;;;;;14.90;10.87;;;3.80;99.90;;;;;;6307580;22;20402;-85
2020/12/31 02:44:36;;;;;;;20.97;15.70;;;3.80;99.90;;;;;;6305965;22;20881;-86
2020/12/31 02:47:11;;;;;;;19.03;17.00;;;3.90;99.90;;;;;;6317890;22;20401;-86
2020/12/31 02:49:48;;;;;;;21.80;19.63;;;3.80;99.90;;;;;;6317748;22;20429;-85
2020/12/31 02:52:14;;;;;;;24.80;21.93;;;3.80;99.90;;;;;;6318056;22;20405;-86
2020/12/31 02:55:19;;;;;;;25.93;23.47;;;3.70;99.90;;;;;;6307066;22;20884;-85
2020/12/31 03:00:31;;;;;;;24.97;22.87;;;3.70;99.90;;;;;;6290543;22;20968;-86
2020/12/31 03:03:00;;;;;;;18.10;16.40;;;3.80;99.90;;;;;;6317937;22;20409;-85
2020/12/31 03:05:28;;;;;;;18.60;15.17;;;3.80;99.90;;;;;;6304818;22;20410;-85
2020/12/31 03:10:46;;;;;;;14.20;11.03;;;3.90;99.90;;;;;;6304995;22;20465;-85
2020/12/31 03:13:14;;;;;;;10.10;8.67;;;3.80;99.90;;;;;;6317343;22;20816;-85
2020/12/31 03:18:45;;;;;;;;;;;;;;;;;;;;;
2020/12/31 03:21:20;;;;;;;11.30;9.10;;;3.90;99.90;;;;;;6317815;22;20790;-84
2020/12/31 03:23:52;;;;;;;11.03;9.80;;;3.80;99.90;;;;;;6317495;22;20490;-84
2020/12/31 03:26:22;;;;;;;11.27;9.50;;;3.70;99.90;;;;;;6306951;22;20397;-84
2020/12/31 03:28:56;;;;;;;12.40;8.93;;;3.70;99.90;;;;;;6305742;22;20881;-84
2020/12/31 03:31:24;;;;;;;15.13;12.23;;;3.80;99.90;;;;;;6307164;22;20467;-84
2020/12/31 03:33:50;;;;;;;18.20;16.30;;;3.80;99.90;;;;;;6306662;22;20425;-83
2020/12/31 03:36:24;;;;;;;24.87;22.77;;;3.70;99.90;;;;;;6307383;22;20404;-85
2020/12/31 03:38:52;;;;;;;33.23;30.33;;;3.70;99.90;;;;;;6317396;22;20423;-86
2020/12/31 03:41:24;;;;;;;42.70;39.43;;;3.70;99.90;;;;;;6307151;22;20498;-85
2020/12/31 03:43:50;;;;;;;41.50;38.93;;;3.60;99.90;;;;;;6306110;22;20398;-84
2020/12/31 03:46:25;;;;;;;46.13;42.60;;;3.60;99.90;;;;;;6309055;22;20397;-84
2020/12/31 03:48:52;;;;;;;57.33;53.60;;;3.60;99.90;;;;;;6309245;22;20393;-82
2020/12/31 03:51:18;;;;;;;48.77;45.77;;;3.60;99.90;;;;;;6319036;22;20405;-86
2020/12/31 03:53:47;;;;;;;50.90;48.10;;;3.60;99.90;;;;;;6309256;22;20442;-85
2020/12/31 03:56:14;;;;;;;49.70;46.60;;;3.50;99.90;;;;;;6308583;22;20406;-85
2020/12/31 03:58:41;;;;;;;48.23;45.47;;;3.60;99.90;;;;;;6308301;22;20406;-81
2020/12/31 04:01:08;;;;;;;51.00;48.00;;;3.50;99.90;;;;;;6308727;22;20993;-85
2020/12/31 04:03:34;;;;;;;53.90;51.00;;;3.60;99.90;;;;;;6308995;22;20488;-86
2020/12/31 04:06:08;;;;;;;52.63;49.60;;;3.50;99.90;;;;;;6309104;22;20489;-85
2020/12/31 04:08:34;;;;;;;52.60;49.50;;;3.60;99.90;;;;;;6319574;22;20405;-84
2020/12/31 04:11:01;;;;;;;57.83;54.70;;;3.60;99.90;;;;;;6319041;22;20417;-85
2020/12/31 04:13:30;;;;;;;64.83;61.00;;;3.50;99.90;;;;;;6319555;22;20444;-85
2020/12/31 04:16:00;;;;;;;67.17;63.70;;;3.50;99.90;;;;;;6317451;22;20409;-84
2020/12/31 04:18:28;;;;;;;74.47;70.43;;;3.50;99.90;;;;;;6308592;22;20429;-85
2020/12/31 04:20:58;;;;;;;80.47;75.83;;;3.50;99.90;;;;;;6318859;22;20476;-85
2020/12/31 04:23:25;;;;;;;85.63;81.03;;;3.50;99.90;;;;;;6318932;22;20402;-85
2020/12/31 04:25:52;;;;;;;87.80;82.97;;;3.40;99.90;;;;;;6308862;22;20795;-85
2020/12/31 04:28:20;;;;;;;94.53;89.27;;;3.40;99.90;;;;;;6319202;22;20413;-86
2020/12/31 04:30:52;;;;;;;88.93;83.67;;;3.50;99.90;;;;;;6317772;22;20406;-85
2020/12/31 04:33:19;;;;;;;93.93;88.67;;;3.50;99.90;;;;;;6308977;22;20406;-85
2020/12/31 04:35:52;;;;;;;90.93;85.77;;;3.40;99.90;;;;;;6318217;22;20422;-83
2020/12/31 04:38:18;;;;;;;95.10;89.40;;;3.40;99.90;;;;;;6308786;22;20397;-87
2020/12/31 04:40:48;;;;;;;85.70;80.97;;;3.40;99.90;;;;;;6319085;22;20523;-84
2020/12/31 04:43:15;;;;;;;84.63;79.83;;;3.50;99.90;;;;;;6309604;22;20398;-85
2020/12/31 04:45:51;;;;;;;84.67;79.57;;;3.40;99.90;;;;;;6317667;22;20938;-85
2020/12/31 04:48:35;;;;;;;84.77;79.60;;;3.40;99.90;;;;;;6308581;22;20428;-85
2020/12/31 04:51:05;;;;;;;86.63;82.00;;;3.50;99.90;;;;;;6308486;22;20397;-90
2020/12/31 04:53:37;;;;;;;82.37;77.83;;;3.50;99.90;;;;;;6308652;22;20496;-85
2020/12/31 04:56:04;;;;;;;93.33;88.33;;;3.40;99.90;;;;;;6318654;22;20468;-83
2020/12/31 04:58:31;;;;;;;91.70;86.73;;;3.40;99.90;;;;;;6308372;22;20402;-83
2020/12/31 05:01:03;;;;;;;103.23;97.60;;;3.40;99.90;;;;;;6306911;22;20429;-84
2020/12/31 05:03:31;;;;;;;105.47;99.57;;;3.40;99.90;;;;;;6318785;22;20405;-85
2020/12/31 05:06:02;;;;;;;111.10;104.93;;;3.30;99.90;;;;;;6308578;22;20405;-84
2020/12/31 05:08:31;;;;;;;110.00;103.57;;;3.30;99.90;;;;;;6307820;22;20532;-84
2020/12/31 05:10:58;;;;;;;112.10;105.77;;;3.50;99.90;;;;;;6308570;22;20409;-83
2020/12/31 05:13:24;;;;;;;114.67;108.17;;;3.50;99.90;;;;;;6307682;22;20452;-84
2020/12/31 05:15:53;;;;;;;134.23;125.87;;;3.40;99.90;;;;;;6306870;22;20417;-84
2020/12/31 05:18:23;;;;;;;117.67;111.23;;;3.40;99.90;;;;;;6307816;22;20458;-83
2020/12/31 05:20:54;;;;;;;121.00;114.57;;;3.40;99.90;;;;;;6308352;22;20479;-84
2020/12/31 05:23:22;;;;;;;107.77;102.17;;;3.30;99.90;;;;;;6308482;22;20402;-84
2020/12/31 05:25:51;;;;;;;110.03;104.30;;;3.40;99.90;;;;;;6308447;22;20427;-83
2020/12/31 05:28:25;;;;;;;111.57;105.30;;;3.40;99.90;;;;;;6318545;22;20484;-85
2020/12/31 05:30:57;;;;;;;106.77;101.67;;;3.50;99.90;;;;;;6306208;22;20398;-84
2020/12/31 05:33:28;;;;;;;74.60;71.43;;;3.40;99.90;;;;;;6308137;22;20437;-84
2020/12/31 05:36:17;;;;;;;58.57;56.07;;;3.50;99.90;;;;;;6317985;22;20496;-81
2020/12/31 05:38:45;;;;;;;53.43;50.67;;;3.50;99.90;;;;;;6318659;22;20412;-84
2020/12/31 05:41:12;;;;;;;53.73;51.33;;;3.60;99.90;;;;;;6308235;22;20429;-83
2020/12/31 05:43:42;;;;;;;62.13;59.23;;;3.60;99.90;;;;;;6317929;22;20417;-84
2020/12/31 05:46:10;;;;;;;62.40;59.40;;;3.60;99.90;;;;;;6308118;22;20397;-85
2020/12/31 05:48:39;;;;;;;64.20;60.47;;;3.40;99.90;;;;;;6307712;22;20888;-84
2020/12/31 05:51:23;;;;;;;67.10;63.90;;;3.40;99.90;;;;;;6318473;22;20769;-85
2020/12/31 05:53:50;;;;;;;67.73;64.63;;;3.50;99.90;;;;;;6308173;22;20896;-85
2020/12/31 05:56:21;;;;;;;68.87;65.80;;;3.40;99.90;;;;;;6307999;22;20390;-86
2020/12/31 05:58:52;;;;;;;62.80;59.70;;;3.40;99.90;;;;;;6316741;22;20403;-82
2020/12/31 06:01:19;;;;;;;60.87;58.23;;;3.40;99.90;;;;;;6318296;22;20437;-82
2020/12/31 06:04:17;;;;;;;51.90;49.50;;;3.40;99.90;;;;;;6318121;22;20417;-84
2020/12/31 06:07:02;;;;;;;48.37;46.23;;;3.40;99.90;;;;;;6307952;22;20402;-84
2020/12/31 06:09:31;;;;;;;50.10;47.90;;;3.40;99.90;;;;;;6318142;22;20482;-84
2020/12/31 06:11:59;;;;;;;54.57;51.80;;;3.30;99.90;;;;;;6318015;22;20465;-83
2020/12/31 06:14:28;;;;;;;52.53;50.23;;;3.40;99.90;;;;;;6306499;22;20477;-84
2020/12/31 06:16:59;;;;;;;49.67;47.37;;;3.30;99.90;;;;;;6318213;22;20497;-83
2020/12/31 06:19:34;;;;;;;48.67;46.37;;;3.30;99.90;;;;;;6317590;22;20398;-84
2020/12/31 06:22:15;;;;;;;53.13;50.57;;;3.20;99.90;;;;;;6307366;22;20406;-84
2020/12/31 06:24:45;;;;;;;56.27;53.77;;;3.30;99.90;;;;;;6317666;22;20416;-84
2020/12/31 06:27:21;;;;;;;63.20;60.47;;;3.20;99.90;;;;;;6307761;22;20733;-83
2020/12/31 06:29:49;;;;;;;64.57;61.57;;;3.20;99.90;;;;;;6316815;22;20440;-84
2020/12/31 06:32:32;;;;;;;65.00;62.30;;;3.20;99.90;;;;;;6307225;22;20881;-84
2020/12/31 06:35:17;;;;;;;69.00;65.80;;;3.10;99.90;;;;;;6317875;22;20405;-84
2020/12/31 06:37:57;;;;;;;67.23;64.17;;;3.10;99.90;;;;;;6307128;22;20413;-84
2020/12/31 06:40:33;;;;;;;73.50;70.40;;;3.20;99.90;;;;;;6318069;22;20433;-84
2020/12/31 06:43:12;;;;;;;82.13;78.60;;;3.10;99.90;;;;;;6317672;22;20413;-85
2020/12/31 06:45:43;;;;;;;91.07;86.70;;;3.20;99.90;;;;;;6306439;22;20400;-83
2020/12/31 06:48:41;;;;;;;96.20;91.77;;;3.20;99.90;;;;;;6307563;22;20377;-84
2020/12/31 06:51:21;;;;;;;100.60;96.17;;;3.10;99.90;;;;;;6307645;22;20480;-83
2020/12/31 06:53:49;;;;;;;100.53;95.93;;;3.10;99.90;;;;;;6317431;22;20399;-85
2020/12/31 06:56:48;;;;;;;104.40;99.80;;;3.10;99.90;;;;;;6307128;22;20424;-83
2020/12/31 06:59:45;;;;;;;100.37;95.77;;;3.10;99.90;;;;;;6306355;22;20402;-84
2020/12/31 07:02:22;;;;;;;100.97;96.57;;;3.10;99.90;;;;;;6307526;22;20484;-83
2020/12/31 07:04:52;;;;;;;97.50;93.50;;;3.20;99.90;;;;;;6317809;22;20481;-84
2020/12/31 07:07:33;;;;;;;99.80;95.50;;;3.10;99.90;;;;;;6318053;22;20404;-84
2020/12/31 07:10:01;;;;;;;106.77;102.37;;;3.10;99.90;;;;;;6317862;22;20900;-85
2020/12/31 07:12:37;;;;;;;100.07;95.47;;;3.10;99.90;;;;;;6317547;22;20433;-83
2020/12/31 07:15:07;;;;;;;107.13;102.73;;;3.10;99.90;;;;;;6316124;22;20397;-84
2020/12/31 07:17:34;;;;;;;106.37;101.97;;;3.10;99.90;;;;;;6317462;22;20437;-83
2020/12/31 07:20:07;;;;;;;101.40;97.20;;;3.10;99.90;;;;;;6308597;22;20421;-82
2020/12/31 07:22:37;;;;;;;102.23;97.83;;;3.20;99.90;;;;;;6311244;22;20897;-85
2020/12/31 07:25:11;;;;;;;102.23;98.10;;;3.10;99.90;;;;;;6319703;22;20397;-86
2020/12/31 07:30:25;;;;;;;112.30;107.70;;;3.10;99.90;;;;;;6245127;22;20414;-88
2020/12/31 07:33:15;;;;;;;116.80;111.70;;;3.20;99.90;;;;;;6309171;22;20928;-85
2020/12/31 07:35:43;;;;;;;123.23;117.63;;;3.10;99.90;;;;;;6319162;22;20409;-87
2020/12/31 07:38:34;;;;;;;123.47;117.60;;;3.20;99.90;;;;;;6319939;22;20409;-86
2020/12/31 07:41:03;;;;;;;129.13;123.43;;;3.10;99.90;;;;;;6134567;23;20450;-86
2020/12/31 07:46:20;;;;;;;124.20;118.20;;;3.10;99.90;;;;;;6162303;22;20905;-87
2020/12/31 07:48:59;;;;;;;131.70;125.67;;;3.10;99.90;;;;;;6309535;22;20754;-88
2020/12/31 07:51:25;;;;;;;130.67;124.27;;;3.10;99.90;;;;;;6308749;22;20401;-86
2020/12/31 07:53:59;;;;;;;127.47;121.10;;;3.10;99.90;;;;;;6309208;22;20421;-87
2020/12/31 07:56:31;;;;;;;126.87;120.90;;;3.20;99.90;;;;;;6309065;22;20397;-88
2020/12/31 07:59:01;;;;;;;131.17;124.60;;;3.10;99.90;;;;;;6308087;22;20444;-86
2020/12/31 08:01:30;;;;;;;128.33;121.80;;;3.10;99.90;;;;;;6308641;22;20435;-85
2020/12/31 08:04:11;;;;;;;123.13;117.00;;;3.10;99.90;;;;;;6309221;22;20479;-85
2020/12/31 08:06:40;;;;;;;128.13;121.63;;;3.10;99.90;;;;;;6319265;22;20397;-84
2020/12/31 08:09:07;;;;;;;129.57;122.60;;;3.10;99.90;;;;;;6309054;22;20728;-86
2020/12/31 08:11:35;;;;;;;129.53;123.00;;;3.10;99.90;;;;;;6308690;22;20473;-86
2020/12/31 08:14:02;;;;;;;126.77;120.47;;;3.10;99.90;;;;;;6307521;22;20401;-85
2020/12/31 08:16:29;;;;;;;128.27;121.90;;;3.10;99.90;;;;;;6308395;22;20584;-83
2020/12/31 08:18:57;;;;;;;130.30;123.97;;;3.00;99.90;;;;;;6308815;22;20402;-86
2020/12/31 08:21:25;;;;;;;131.17;124.57;;;3.20;99.90;;;;;;6308762;22;20433;-84
2020/12/31 08:24:04;;;;;;;127.20;121.00;;;3.10;99.90;;;;;;6308927;22;20408;-87
2020/12/31 08:26:55;;;;;;;127.93;121.63;;;3.10;99.90;;;;;;6308896;22;20400;-85
2020/12/31 08:29:53;;;;;;;123.97;117.97;;;3.20;99.90;;;;;;6317808;22;20492;-85
2020/12/31 08:32:28;;;;;;;122.73;116.80;;;3.10;99.90;;;;;;6318769;22;20429;-85
2020/12/31 08:34:58;;;;;;;120.83;115.10;;;3.20;99.90;;;;;;6318891;22;20411;-85
2020/12/31 08:37:30;;;;;;;121.70;115.47;;;3.10;99.90;;;;;;6318930;22;20405;-85
2020/12/31 08:39:59;;;;;;;121.63;115.53;;;3.20;99.90;;;;;;6321064;22;20421;-84
2020/12/31 08:45:43;;;;;;;123.03;116.43;;;3.10;99.90;;;;;;6304588;22;20432;-84
2020/12/31 08:48:15;;;;;;;125.33;119.37;;;3.20;99.90;;;;;;6308382;22;20401;-84
2020/12/31 08:50:47;;;;;;;122.13;115.83;;;3.20;99.90;;;;;;6319786;22;20493;-86
2020/12/31 08:53:13;;;;;;;117.63;111.60;;;3.20;99.90;;;;;;6307976;22;20417;-84
2020/12/31 08:55:40;;;;;;;115.13;109.03;;;3.20;99.90;;;;;;6318675;22;20409;-84
2020/12/31 08:58:17;;;;;;;118.33;112.53;;;3.30;99.90;;;;;;6303642;22;20696;-85
2020/12/31 09:01:15;;;;;;;111.83;106.23;;;3.30;99.90;;;;;;6303686;22;20433;-85
2020/12/31 09:03:42;;;;;;;111.87;106.17;;;3.30;99.90;;;;;;6315857;22;20923;-85
2020/12/31 09:06:08;;;;;;;109.83;104.27;;;3.40;99.90;;;;;;6316156;22;20428;-85
2020/12/31 09:08:37;;;;;;;105.70;100.53;;;3.30;99.90;;;;;;6316270;22;20397;-84
2020/12/31 09:11:05;;;;;;;108.33;102.73;;;3.40;99.90;;;;;;6315928;22;20492;-85
2020/12/31 09:13:37;;;;;;;104.27;98.57;;;3.30;99.90;;;;;;6305342;22;20511;-85
2020/12/31 09:16:13;;;;;;;103.57;98.37;;;3.40;99.90;;;;;;6304522;22;20405;-84
2020/12/31 09:18:40;;;;;;;99.57;94.03;;;3.40;99.90;;;;;;6306116;22;20393;-85
2020/12/31 09:21:07;;;;;;;96.10;90.80;;;3.40;99.90;;;;;;6315346;22;20433;-85
2020/12/31 09:23:36;;;;;;;99.27;93.40;;;3.50;99.90;;;;;;6305518;22;20430;-84
2020/12/31 09:26:05;;;;;;;94.53;89.73;;;3.40;99.90;;;;;;6305548;22;20414;-83
2020/12/31 09:28:35;;;;;;;99.50;93.80;;;3.40;99.90;;;;;;6315179;22;20413;-85
2020/12/31 09:31:22;;;;;;;92.23;87.13;;;3.40;99.90;;;;;;6304352;22;20473;-85
2020/12/31 09:33:48;;;;;;;99.17;93.73;;;3.50;99.90;;;;;;6305691;22;20437;-85
2020/12/31 09:36:21;;;;;;;99.23;93.63;;;3.50;99.90;;;;;;6316802;22;20401;-84
2020/12/31 09:38:47;;;;;;;101.00;95.53;;;3.50;99.90;;;;;;6317328;22;20398;-84
2020/12/31 09:41:14;;;;;;;98.50;93.50;;;3.50;99.90;;;;;;6317192;22;20444;-84
2020/12/31 09:43:54;;;;;;;106.00;100.10;;;3.60;99.90;;;;;;6306591;22;20398;-84
2020/12/31 09:46:22;;;;;;;103.50;98.10;;;3.60;99.90;;;;;;6317259;22;20409;-84
2020/12/31 09:48:54;;;;;;;98.47;92.37;;;3.50;99.90;;;;;;6317424;22;20398;-83
2020/12/31 09:51:27;;;;;;;102.83;96.63;;;3.60;99.90;;;;;;6308786;22;20397;-83
2020/12/31 09:54:05;;;;;;;95.80;90.30;;;3.60;99.90;;;;;;6317555;22;20413;-85
2020/12/31 09:56:32;;;;;;;85.97;81.27;;;3.60;99.90;;;;;;6317783;22;20413;-85
2020/12/31 09:59:07;;;;;;;83.73;78.97;;;3.60;99.90;;;;;;6303880;22;20413;-84
2020/12/31 10:01:35;;;;;;;77.67;73.37;;;3.60;99.90;;;;;;6315078;22;20429;-85
2020/12/31 10:04:01;;;;;;;74.60;70.43;;;3.60;99.90;;;;;;6306850;22;20406;-85
2020/12/31 10:06:37;;;;;;;73.50;69.50;;;3.60;99.90;;;;;;6317362;22;20420;-85
2020/12/31 10:09:09;;;;;;;76.07;71.70;;;3.50;99.90;;;;;;6317621;22;20446;-85
2020/12/31 10:11:37;;;;;;;81.60;76.90;;;3.50;99.90;;;;;;6312814;22;21001;-86
2020/12/31 10:14:04;;;;;;;81.90;77.20;;;3.60;99.90;;;;;;6305557;22;20402;-87
2020/12/31 10:16:34;;;;;;;84.05;79.25;;;3.50;99.90;;;;;;6305614;22;20405;-88
2020/12/31 10:21:53;;;;;;;87.67;82.87;;;3.50;99.90;;;;;;6301961;22;20452;-86
2020/12/31 10:24:22;;;;;;;90.53;85.43;;;3.60;99.90;;;;;;6316927;22;20459;-86
2020/12/31 10:26:49;;;;;;;85.87;81.27;;;3.60;99.90;;;;;;6306604;22;20404;-85
2020/12/31 10:29:38;;;;;;;84.07;79.77;;;3.70;99.90;;;;;;6305778;22;20409;-84
2020/12/31 11:18:44;;;;;;;72.20;67.63;;;3.60;99.90;;;;;;6273925;22;20780;-83
2020/12/31 12:26:24;;;;;;;;;;;;;;;;;;;;;
2020/12/31 12:28:57;;;;;;;94.73;89.90;;;3.50;99.90;;;;;;6285484;22;20417;-84
2020/12/31 12:31:38;;;;;;;90.03;85.33;;;3.50;99.90;;;;;;6276968;22;20933;-84
2020/12/31 12:40:40;;;;;;;87.53;83.20;;;3.40;99.90;;;;;;6234219;22;20426;-83
2020/12/31 12:43:40;;;;;;;94.17;89.57;;;3.40;99.90;;;;;;6286639;22;20402;-84
2020/12/31 12:47:05;;;;;;;;;;;;;;;;;;;;;
2020/12/31 12:49:56;;;;;;;;;;;;;;;;;;;;;
2020/12/31 12:59:00;;;;;;;111.57;105.00;;;3.60;99.90;;;;;;6275598;22;20418;-83
2020/12/31 13:05:09;;;;;;;111.37;105.53;;;3.50;99.90;;;;;;6044824;23;20909;-84
2020/12/31 13:07:36;;;;;;;108.30;102.60;;;3.60;99.90;;;;;;6132328;23;20987;-82
2020/12/31 13:10:06;;;;;;;108.77;103.00;;;3.60;99.90;;;;;;6236164;22;20489;-84
2020/12/31 13:12:41;;;;;;;110.97;105.07;;;3.60;99.90;;;;;;6284279;22;20699;-84
2020/12/31 13:15:10;;;;;;;116.30;110.03;;;3.60;99.90;;;;;;6285168;22;20724;-85
2020/12/31 13:17:44;;;;;;;116.67;110.17;;;3.60;99.90;;;;;;6272501;22;20935;-82
2020/12/31 13:20:15;;;;;;;116.43;109.97;;;3.50;99.90;;;;;;6283942;22;20955;-83
2020/12/31 13:22:44;;;;;;;113.40;107.40;;;3.60;99.90;;;;;;6284980;22;20430;-82
2020/12/31 13:25:12;;;;;;;118.70;112.17;;;3.50;99.90;;;;;;6274993;22;20416;-83
2020/12/31 13:27:41;;;;;;;120.40;113.80;;;3.60;99.90;;;;;;6274006;22;20398;-82
2020/12/31 13:30:14;;;;;;;126.27;118.07;;;3.50;99.90;;;;;;6271178;22;20473;-83
2020/12/31 13:32:40;;;;;;;123.77;117.07;;;3.70;99.90;;;;;;6241318;23;20399;-83
2020/12/31 13:35:15;;;;;;;130.53;123.33;;;3.70;99.90;;;;;;6253898;23;20450;-84
2020/12/31 13:37:52;;;;;;;132.60;125.17;;;3.70;99.90;;;;;;6254089;23;20793;-83
2020/12/31 13:40:20;;;;;;;125.93;119.33;;;3.80;99.90;;;;;;6243850;23;20426;-82
2020/12/31 13:42:48;;;;;;;125.00;117.97;;;3.70;99.90;;;;;;6253677;23;20419;-83
2020/12/31 13:45:31;;;;;;;130.40;123.40;;;3.80;99.90;;;;;;6243624;23;20407;-82
2020/12/31 13:48:18;;;;;;;129.80;122.17;;;3.90;99.90;;;;;;6246563;23;20478;-84
2020/12/31 13:50:48;;;;;;;128.90;121.90;;;3.90;99.90;;;;;;6237093;23;21041;-82
2020/12/31 13:53:32;;;;;;;128.63;121.37;;;3.90;99.90;;;;;;6244976;23;20406;-84
2020/12/31 13:56:03;;;;;;;123.77;117.23;;;3.80;99.90;;;;;;6255588;23;20408;-83
2020/12/31 13:58:29;;;;;;;116.23;110.23;;;3.70;99.90;;;;;;6245410;23;20446;-84
2020/12/31 14:00:57;;;;;;;115.73;109.47;;;3.70;99.90;;;;;;6244011;23;20492;-82
2020/12/31 14:03:26;;;;;;;103.90;98.83;;;3.60;99.90;;;;;;6255295;23;20404;-81
2020/12/31 14:06:02;;;;;;;103.13;98.33;;;3.50;99.90;;;;;;6245372;23;20395;-81
2020/12/31 14:08:37;;;;;;;95.67;91.17;;;3.40;99.90;;;;;;6255522;23;20426;-84
2020/12/31 14:11:03;;;;;;;94.60;90.00;;;3.40;99.90;;;;;;6254769;23;20431;-83
2020/12/31 14:13:30;;;;;;;97.50;92.70;;;3.40;99.90;;;;;;6255128;23;20422;-85
2020/12/31 14:15:57;;;;;;;96.40;91.40;;;3.30;99.90;;;;;;6254461;23;20468;-84
2020/12/31 14:18:24;;;;;;;94.47;89.80;;;3.40;99.90;;;;;;6255268;23;20517;-83
2020/12/31 14:20:50;;;;;;;98.40;93.30;;;3.30;99.90;;;;;;6244791;23;20552;-82
2020/12/31 14:23:19;;;;;;;105.83;100.10;;;3.30;99.90;;;;;;6245075;23;20438;-87
2020/12/31 14:25:47;;;;;;;111.50;105.70;;;3.30;99.90;;;;;;6178598;23;20423;-84
2020/12/31 14:28:15;;;;;;;113.17;107.60;;;3.30;99.90;;;;;;6244678;23;20707;-85
2020/12/31 14:30:44;;;;;;;114.30;108.30;;;3.30;99.90;;;;;;6243590;22;20756;-85
2020/12/31 14:33:12;;;;;;;109.27;103.93;;;3.40;99.90;;;;;;6254859;23;20778;-86
2020/12/31 14:35:38;;;;;;;109.90;104.23;;;3.30;99.90;;;;;;6255257;23;20411;-83
2020/12/31 14:38:04;;;;;;;113.37;107.87;;;3.30;99.90;;;;;;6254705;23;20399;-86
2020/12/31 14:40:31;;;;;;;115.77;109.97;;;3.40;99.90;;;;;;6244793;23;20526;-85
2020/12/31 14:42:57;;;;;;;114.43;108.47;;;3.40;99.90;;;;;;6255052;23;20411;-86
2020/12/31 14:45:24;;;;;;;115.57;109.87;;;3.50;99.90;;;;;;6244015;23;20930;-85
2020/12/31 14:47:54;;;;;;;118.43;112.13;;;3.30;99.90;;;;;;6244696;23;20404;-86
2020/12/31 14:50:24;;;;;;;122.27;116.17;;;3.40;99.90;;;;;;6254590;23;20477;-80
2020/12/31 14:52:51;;;;;;;123.07;116.77;;;3.40;99.90;;;;;;6255145;23;20411;-86
2020/12/31 14:55:17;;;;;;;119.37;113.47;;;3.40;99.90;;;;;;6244431;23;20860;-82
2020/12/31 14:57:45;;;;;;;117.80;111.90;;;3.30;99.90;;;;;;6247041;23;20408;-83
2020/12/31 15:00:25;;;;;;;110.70;105.30;;;3.30;99.90;;;;;;6252858;23;20446;-81
2020/12/31 15:02:51;;;;;;;113.23;107.80;;;3.30;99.90;;;;;;6254855;23;20795;-81
2020/12/31 15:05:40;;;;;;;;;;;;;;;;;;;;;
2020/12/31 15:08:16;;;;;;;126.07;119.67;;;3.20;99.90;;;;;;6190563;23;20413;-84
2020/12/31 15:10:51;;;;;;;118.77;112.67;;;3.20;99.90;;;;;;6243277;23;20410;-84
2020/12/31 15:13:17;;;;;;;115.53;109.77;;;3.30;99.90;;;;;;6254943;23;20410;-84
2020/12/31 15:15:46;;;;;;;118.77;112.70;;;3.20;99.90;;;;;;6241477;23;20400;-85
2020/12/31 15:18:13;;;;;;;118.90;112.90;;;3.20;99.90;;;;;;6253154;23;20407;-86
2020/12/31 15:20:47;;;;;;;125.87;119.77;;;3.10;99.90;;;;;;6242998;23;20423;-84
2020/12/31 15:23:15;;;;;;;127.00;120.63;;;3.20;99.90;;;;;;6242666;23;20394;-86
2020/12/31 15:25:41;;;;;;;131.67;124.87;;;3.20;99.90;;;;;;6242452;23;20434;-83
2020/12/31 15:28:09;;;;;;;128.40;121.77;;;3.20;99.90;;;;;;6253503;23;20705;-84
2020/12/31 15:30:35;;;;;;;130.63;123.30;;;3.10;99.90;;;;;;6252159;22;20946;-81
2020/12/31 15:33:02;;;;;;;127.17;120.47;;;3.10;99.90;;;;;;6252818;23;20895;-81